Airfield :
LOGIN :

Register | Disclaimer

   EN    FR    IT 

 










Legend :    VFR   Marginal VFR   IFR   Intensive IFR   Very Intensive IFR
Visi :
Ceiling :
>= 8 km
>= 3000ft
5 to 8 km
1000 to 3000 ft
1500m to 5 km
500 to 1000 ft
800 to 1500m
200 to 500 ft
< 800m
< 200 ft
Symbols :   Thunderstorms  Fog  Heavy snow  Heavy precipitations  Wind > 20 kt
SIGMETs :     Misc.  Thunderstorms  Icing  Turbulence  Mountain Waves  Volcanic Ashes







- Airport Elevation : 650 ft
- IATA code : ZJI


LSZL - Locarno

CURRENT METAR :
  • 140950Z 26004KT 230V290 9999 FEW070 SCT140 23/17 Q1013 RMK BLU+

EXPIRED METARs :
  • 140920Z VRB02KT 9999 SCT140 23/16 Q1013 RMK BLU+
  • 140820Z VRB02KT 9999 SCT120 21/16 Q1013 RMK BLU+
  • 140750Z VRB02KT 9999 FEW080 SCT120 21/16 Q1013 RMK BLU+
  • 140720Z 00000KT 9999 SCT120 20/16 Q1013 RMK BLU+

TAF TAF LSZL
Valid from the 14 at 06:00 until the 14 at 15:00 UTC


140525Z 1406/1415 VRB03KT 9999 SCT110
PROB30
TEMPO 1408/1411 SHRA FEW040TCU
TEMPO 1412/1415 09010KT
No reported NOTAMs for that airfield.



MET'MAP, your aeronautical weather chart ! - Copyright ORBIFLY December 2007 - Disclaimer

ORBIFLY MET'MAP TEAM :

Programming & Development : Alexandra Zaïnal
Concept & Development : Baudouin d'Aumeries
Co-Development & Prog : Marc-Olivier Méhu
Technical & hardware support : Manuel Goepfert

Contact : metmap@orbifly.com




SOURCES & CREDITS :

   NOAA